Time;durP1;ratioP1;P1;durP2;ratioP2;P2;SDS_P1;SDS_P2;PMS_P1;PMS_P2;Temp;Humidity;BMP_temperature;BMP_pressure;BME280_temperature;BME280_humidity;BME280_pressure;Samples;Min_cycle;Max_cycle;Signal;HPM_P1;HPM_P2
2021/06/28 00:00:43;;;;;;;2.20;2.00;;;;;;;29.10;43.67;99015.88;1829162;78;20970;-44
2021/06/28 00:03:10;;;;;;;2.35;2.17;;;;;;;29.08;43.69;99022.00;1832541;78;21075;-43
2021/06/28 00:05:37;;;;;;;2.52;1.98;;;;;;;29.06;43.68;99022.18;1827772;77;21098;-43
2021/06/28 00:08:04;;;;;;;2.00;1.90;;;;;;;29.06;43.64;99018.11;1823945;78;21017;-43
2021/06/28 00:10:31;;;;;;;3.85;2.30;;;;;;;29.06;43.60;99022.70;1825069;77;21026;-44
2021/06/28 00:13:00;;;;;;;2.37;2.17;;;;;;;29.04;43.57;99022.88;1809950;77;48464;-44
2021/06/28 00:15:32;;;;;;;2.15;2.02;;;;;;;29.04;43.58;99022.05;1785790;78;21071;-43
2021/06/28 00:17:58;;;;;;;2.52;2.33;;;;;;;29.04;43.56;99031.53;1801311;78;21808;-44
2021/06/28 00:20:25;;;;;;;2.37;2.20;;;;;;;29.04;43.52;99031.53;1821391;77;21041;-44
2021/06/28 00:22:52;;;;;;;3.77;2.30;;;;;;;29.03;43.49;99040.18;1790463;78;21065;-44
2021/06/28 00:25:20;;;;;;;1.90;1.80;;;;;;;29.02;43.46;99041.72;1790608;77;21025;-43
2021/06/28 00:27:47;;;;;;;1.80;1.70;;;;;;;29.01;43.51;99041.37;1765708;79;22049;-44
2021/06/28 00:30:17;;;;;;;2.33;2.12;;;;;;;29.00;43.53;99035.62;1778519;79;21041;-44
2021/06/28 00:32:47;;;;;;;2.22;2.02;;;;;;;28.99;43.54;99039.37;1791676;78;21501;-44
2021/06/28 00:35:14;;;;;;;2.72;2.10;;;;;;;28.99;43.57;99033.95;1812443;77;21013;-43
2021/06/28 00:37:41;;;;;;;2.45;2.10;;;;;;;28.98;43.56;99036.31;1791012;78;21030;-44
2021/06/28 00:40:11;;;;;;;2.62;2.42;;;;;;;28.98;43.56;99039.03;1787352;77;21085;-44
2021/06/28 00:42:37;;;;;;;2.95;2.55;;;;;;;28.96;43.56;99029.73;1787765;78;22618;-43
2021/06/28 00:45:24;;;;;;;2.08;1.85;;;;;;;28.97;43.55;99027.88;1785739;78;21006;-44
2021/06/28 00:47:53;;;;;;;3.90;2.22;;;;;;;28.96;43.56;99030.25;1784721;78;21081;-44
2021/06/28 00:50:22;;;;;;;2.10;2.00;;;;;;;28.95;43.58;99028.55;1804993;78;21006;-44
2021/06/28 00:52:53;;;;;;;3.95;2.45;;;;;;;28.95;43.63;99027.20;1784005;78;21022;-44
2021/06/28 00:55:19;;;;;;;2.35;2.17;;;;;;;28.93;43.69;99030.61;1777995;78;21013;-44
2021/06/28 00:57:46;;;;;;;3.35;2.20;;;;;;;28.93;43.68;99034.67;1785016;78;21055;-43
2021/06/28 01:00:15;;;;;;;2.20;2.10;;;;;;;28.91;43.70;99037.05;1772303;77;21877;-44
2021/06/28 01:02:41;;;;;;;2.00;1.90;;;;;;;28.93;43.67;99037.38;1763404;78;21039;-43
2021/06/28 01:05:11;;;;;;;3.95;2.12;;;;;;;28.93;43.67;99038.73;1786883;78;21080;-44
2021/06/28 01:07:40;;;;;;;2.85;1.90;;;;;;;28.92;43.64;99037.91;1790434;78;21057;-44
2021/06/28 01:10:09;;;;;;;2.30;2.10;;;;;;;28.93;43.62;99044.16;1754814;78;21019;-44
2021/06/28 01:12:35;;;;;;;2.25;2.05;;;;;;;28.93;43.56;99048.22;1787614;78;21084;-43
2021/06/28 01:15:05;;;;;;;1.90;1.80;;;;;;;28.95;43.51;99055.64;1779126;78;21098;-44
2021/06/28 01:17:31;;;;;;;3.17;1.95;;;;;;;28.93;43.48;99059.88;1782065;77;21109;-44
2021/06/28 01:20:11;;;;;;;2.40;2.20;;;;;;;28.91;43.50;99058.70;1771361;79;21126;-44
2021/06/28 01:22:42;;;;;;;2.55;2.35;;;;;;;28.92;43.50;99059.56;1766876;80;21034;-44
2021/06/28 01:25:12;;;;;;;2.22;2.02;;;;;;;28.91;43.45;99051.94;1793578;78;21014;-44
2021/06/28 01:27:39;;;;;;;2.35;2.10;;;;;;;28.90;43.42;99057.04;1786786;78;21356;-44
2021/06/28 01:30:11;;;;;;;2.77;1.90;;;;;;;28.88;43.44;99050.97;1787958;79;21083;-44
2021/06/28 01:32:38;;;;;;;2.35;1.98;;;;;;;28.90;43.47;99060.27;1780050;78;21082;-43
2021/06/28 01:35:06;;;;;;;2.55;2.45;;;;;;;28.87;43.45;99054.69;1782670;78;21554;-44
2021/06/28 01:37:32;;;;;;;2.45;2.25;;;;;;;28.87;43.42;99053.34;1753134;79;21002;-44
2021/06/28 01:40:02;;;;;;;2.25;2.05;;;;;;;28.86;43.39;99053.00;1787040;78;21006;-43
2021/06/28 01:42:29;;;;;;;2.30;2.20;;;;;;;28.87;43.33;99060.11;1782164;78;21093;-43
2021/06/28 01:44:56;;;;;;;2.58;2.37;;;;;;;28.87;43.29;99063.34;1753671;79;21157;-44
2021/06/28 01:47:22;;;;;;;2.27;2.17;;;;;;;28.87;43.28;99066.88;1791283;79;21542;-44
2021/06/28 01:49:49;;;;;;;3.37;1.90;;;;;;;28.87;43.25;99064.69;1780271;78;21097;-44
2021/06/28 01:52:16;;;;;;;2.47;2.27;;;;;;;28.85;43.18;99062.16;1787712;77;21030;-44
2021/06/28 01:54:42;;;;;;;2.35;2.12;;;;;;;28.85;43.18;99062.16;1778749;78;21070;-44
2021/06/28 01:57:09;;;;;;;2.30;2.10;;;;;;;28.86;43.10;99063.00;1795428;77;21173;-44
2021/06/28 01:59:38;;;;;;;3.25;2.10;;;;;;;28.86;43.04;99063.00;1775753;78;21978;-44
2021/06/28 02:02:06;;;;;;;5.20;2.25;;;;;;;28.87;43.02;99063.34;1757547;79;21059;-44
2021/06/28 02:04:33;;;;;;;2.10;2.00;;;;;;;28.86;42.99;99054.88;1784946;78;21488;-44
2021/06/28 02:07:01;;;;;;;2.77;2.00;;;;;;;28.84;43.02;99063.17;1803279;78;21474;-43
2021/06/28 02:09:30;;;;;;;3.77;2.08;;;;;;;28.83;43.03;99061.52;1784964;78;22026;-44
2021/06/28 02:11:57;;;;;;;2.60;2.40;;;;;;;28.83;43.01;99056.09;1788201;79;21024;-44
2021/06/28 02:14:24;;;;;;;2.83;2.10;;;;;;;28.84;43.02;99058.28;1765152;77;21392;-43
2021/06/28 02:16:50;;;;;;;3.02;2.20;;;;;;;28.84;42.97;99062.34;1779750;77;21510;-44
2021/06/28 02:19:17;;;;;;;5.08;2.08;;;;;;;28.82;42.99;99063.87;1790517;78;21098;-43
2021/06/28 02:21:47;;;;;;;2.20;2.00;;;;;;;28.81;43.03;99074.36;1799826;78;21133;-44
2021/06/28 02:24:14;;;;;;;3.80;2.30;;;;;;;28.81;42.98;99060.83;1759889;79;21057;-43
2021/06/28 02:26:42;;;;;;;2.98;2.30;;;;;;;28.81;43.01;99068.95;1794923;79;21056;-44
2021/06/28 02:29:09;;;;;;;2.50;2.30;;;;;;;28.81;43.01;99066.77;1750141;80;21054;-44
2021/06/28 02:31:37;;;;;;;4.53;2.17;;;;;;;28.81;42.99;99066.24;1754270;79;21538;-44
2021/06/28 02:34:04;;;;;;;3.22;2.10;;;;;;;28.82;42.97;99066.59;1773713;78;21278;-44
2021/06/28 02:36:32;;;;;;;2.15;2.00;;;;;;;28.82;42.94;99069.81;1792564;78;20991;-44
2021/06/28 02:38:59;;;;;;;2.20;2.08;;;;;;;28.81;42.92;99077.59;1783489;78;21120;-44
2021/06/28 02:41:27;;;;;;;2.08;1.98;;;;;;;28.79;42.92;99073.71;1757521;79;21027;-44
2021/06/28 02:43:54;;;;;;;2.70;2.50;;;;;;;28.78;42.93;99063.92;1769436;77;21015;-44
2021/06/28 02:46:21;;;;;;;3.02;2.10;;;;;;;28.78;42.94;99070.70;1776413;77;21514;-44
2021/06/28 02:48:48;;;;;;;2.47;2.27;;;;;;;28.79;42.94;99069.65;1776125;77;21021;-43
2021/06/28 02:51:16;;;;;;;2.12;2.02;;;;;;;28.79;42.92;99068.82;1770609;79;21639;-44
2021/06/28 02:53:44;;;;;;;2.20;2.00;;;;;;;28.79;42.92;99073.71;1771195;77;21489;-44
2021/06/28 02:56:13;;;;;;;3.30;2.17;;;;;;;28.78;42.92;99076.11;1787245;77;21300;-43
2021/06/28 02:58:50;;;;;;;7.92;2.20;;;;;;;28.78;42.92;99084.72;1771202;78;22412;-43
2021/06/28 03:01:19;;;;;;;3.45;1.98;;;;;;;28.76;42.91;99082.71;1787022;79;21017;-44
2021/06/28 03:03:46;;;;;;;4.25;2.27;;;;;;;28.75;42.90;99092.71;1784407;77;21073;-47
2021/06/28 03:06:13;;;;;;;2.10;2.00;;;;;;;28.75;42.94;99088.65;1775023;77;21046;-47
2021/06/28 03:08:41;;;;;;;3.22;2.22;;;;;;;28.75;42.87;99081.88;1763760;78;21046;-47
2021/06/28 03:11:08;;;;;;;2.80;2.40;;;;;;;28.71;42.72;99087.31;1758089;78;21026;-45
2021/06/28 03:13:40;;;;;;;2.30;2.20;;;;;;;28.64;42.81;99087.70;1783169;79;20999;-46
2021/06/28 03:16:06;;;;;;;2.27;2.00;;;;;;;28.62;42.78;99091.95;1754653;79;21478;-47
2021/06/28 03:18:34;;;;;;;4.60;2.20;;;;;;;28.60;42.87;99089.11;1747659;79;21117;-51
2021/06/28 03:21:02;;;;;;;4.83;2.37;;;;;;;28.59;42.90;99091.47;1734422;80;21086;-52
2021/06/28 03:23:28;;;;;;;9.28;2.33;;;;;;;28.57;42.94;99088.11;1711661;81;22312;-49
2021/06/28 03:25:56;;;;;;;5.12;2.40;;;;;;;28.53;42.92;99086.24;1763522;79;21242;-46
2021/06/28 03:28:23;;;;;;;4.12;2.25;;;;;;;28.45;43.22;99091.19;1764275;79;21031;-43
2021/06/28 03:30:50;;;;;;;2.98;2.52;;;;;;;28.44;43.19;99088.14;1766136;79;21022;-44
2021/06/28 03:33:17;;;;;;;5.10;2.80;;;;;;;28.42;43.27;99088.83;1771270;79;21136;-45
2021/06/28 03:35:44;;;;;;;6.40;2.77;;;;;;;28.43;42.83;99097.29;1768941;79;21090;-39
2021/06/28 03:38:11;;;;;;;5.45;2.50;;;;;;;28.37;43.22;99100.70;1734805;80;21023;-39
2021/06/28 03:40:38;;;;;;;5.65;2.58;;;;;;;28.31;43.14;99098.70;1749726;79;21066;-37
2021/06/28 03:43:09;;;;;;;4.97;2.45;;;;;;;28.23;43.29;99110.42;1741995;80;21074;-38
2021/06/28 03:45:37;;;;;;;4.37;2.35;;;;;;;28.15;43.48;99106.41;1741379;79;21087;-38
2021/06/28 03:48:06;;;;;;;5.97;2.37;;;;;;;28.12;43.42;99096.77;1765499;79;21031;-38
2021/06/28 03:50:33;;;;;;;8.43;2.80;;;;;;;28.10;43.50;99095.27;1756180;79;21511;-37
2021/06/28 03:53:01;;;;;;;5.10;2.85;;;;;;;28.07;43.54;99093.75;1756997;79;21069;-43
2021/06/28 03:55:28;;;;;;;4.92;3.10;;;;;;;28.07;43.52;99099.16;1756684;80;21102;-44
2021/06/28 03:57:54;;;;;;;6.00;2.22;;;;;;;28.11;43.43;99098.29;1767203;78;21572;-41
2021/06/28 04:00:25;;;;;;;3.37;2.30;;;;;;;28.16;43.44;99095.41;1773754;78;21143;-42
2021/06/28 04:02:52;;;;;;;3.47;2.55;;;;;;;28.23;43.33;99086.59;1765715;78;22235;-43
2021/06/28 04:05:22;;;;;;;3.87;2.40;;;;;;;28.32;43.19;99099.04;1765350;78;21140;-42
2021/06/28 04:07:53;;;;;;;3.15;2.60;;;;;;;28.40;43.09;99100.35;1769513;77;21125;-40
2021/06/28 04:10:22;;;;;;;2.85;2.15;;;;;;;28.51;42.90;99094.54;1744566;79;21034;-42
2021/06/28 04:12:51;;;;;;;2.65;2.17;;;;;;;28.61;42.72;99089.42;1775171;78;22264;-45
2021/06/28 04:15:21;;;;;;;5.47;2.55;;;;;;;28.71;42.45;99096.30;1755167;78;21093;-43
2021/06/28 04:17:54;;;;;;;2.45;1.87;;;;;;;28.84;42.15;99099.73;1743991;79;21046;-43
2021/06/28 04:20:25;;;;;;;3.92;2.15;;;;;;;29.05;41.80;99094.13;1754351;79;21058;-43
2021/06/28 04:22:52;;;;;;;5.05;2.37;;;;;;;29.21;41.46;99087.25;1745155;80;21039;-43
2021/06/28 04:25:21;;;;;;;6.05;2.10;;;;;;;29.35;41.20;99092.88;1730554;78;21092;-44
2021/06/28 04:27:48;;;;;;;2.25;2.00;;;;;;;29.52;40.88;99086.28;1736101;79;21797;-42
2021/06/28 04:30:16;;;;;;;5.28;2.02;;;;;;;29.59;40.72;99087.73;1779183;79;21406;-39
2021/06/28 04:32:43;;;;;;;3.10;2.30;;;;;;;29.60;40.65;99094.30;1779209;79;22023;-41
2021/06/28 04:35:12;;;;;;;2.98;2.58;;;;;;;29.61;40.63;99091.09;1779003;79;21006;-40
2021/06/28 04:37:39;;;;;;;3.30;2.12;;;;;;;29.68;40.49;99089.31;1800016;77;21236;-43
2021/06/28 04:40:07;;;;;;;3.37;2.30;;;;;;;29.71;40.38;99092.17;1779368;78;21068;-41
2021/06/28 04:42:35;;;;;;;2.58;2.22;;;;;;;29.69;40.44;99091.49;1779505;78;21930;-42
2021/06/28 04:45:01;;;;;;;2.58;2.25;;;;;;;29.69;40.37;99088.30;1770569;79;21702;-42
2021/06/28 04:47:29;;;;;;;2.30;2.10;;;;;;;29.68;40.33;99092.02;1749455;78;20990;-41
2021/06/28 04:50:01;;;;;;;3.58;2.40;;;;;;;29.65;40.07;99093.22;1780944;78;21090;-42
2021/06/28 04:52:24;;;;;;;2.77;2.58;;;;;;;29.63;40.21;99087.15;1779331;79;20976;-41
2021/06/28 04:54:50;;;;;;;21.25;16.85;;;;;;;29.68;40.25;99088.47;1779058;79;20978;-42
2021/06/28 04:57:17;;;;;;;19.65;13.75;;;;;;;29.70;40.18;99089.13;1743400;79;21089;-41
2021/06/28 04:59:43;;;;;;;14.28;9.83;;;;;;;29.71;40.09;99101.66;1748713;78;21005;-40
2021/06/28 05:02:10;;;;;;;11.48;7.53;;;;;;;29.74;39.96;99091.28;1779534;78;21516;-40
2021/06/28 05:04:36;;;;;;;9.10;6.20;;;;;;;29.77;39.83;99097.72;1779275;79;21332;-42
2021/06/28 05:07:03;;;;;;;7.05;5.12;;;;;;;29.79;39.68;99096.15;1780326;78;21521;-42
2021/06/28 05:09:29;;;;;;;6.08;4.90;;;;;;;29.79;39.63;99100.22;1779937;79;21572;-39
2021/06/28 05:11:56;;;;;;;6.28;4.92;;;;;;;29.82;39.68;99099.84;1748560;79;20952;-40
2021/06/28 05:14:23;;;;;;;8.15;5.00;;;;;;;29.90;39.62;99101.11;1778156;79;21085;-39
2021/06/28 05:16:50;;;;;;;5.28;4.22;;;;;;;30.01;39.53;99097.09;1775920;78;20995;-39
2021/06/28 05:19:16;;;;;;;5.42;3.80;;;;;;;30.11;39.42;99098.12;1774859;77;21935;-38
2021/06/28 05:21:43;;;;;;;3.60;2.75;;;;;;;30.21;39.12;99093.23;1778130;78;21030;-41
2021/06/28 05:24:10;;;;;;;2.60;2.40;;;;;;;30.28;38.49;99091.47;1793197;78;20974;-41
2021/06/28 05:26:37;;;;;;;3.00;2.33;;;;;;;30.30;38.12;99088.56;1794084;77;21704;-42
2021/06/28 05:29:04;;;;;;;6.20;2.47;;;;;;;30.26;38.01;99088.60;1794151;78;21014;-43
2021/06/28 05:31:31;;;;;;;4.87;2.33;;;;;;;30.17;38.05;99087.36;1792411;78;20956;-39
2021/06/28 05:33:58;;;;;;;5.15;2.40;;;;;;;30.09;38.20;99087.98;1784364;77;22279;-41
2021/06/28 05:36:24;;;;;;;7.70;2.50;;;;;;;30.00;38.37;99084.55;1791872;78;20934;-40
2021/06/28 05:38:51;;;;;;;4.90;3.00;;;;;;;29.95;38.68;99085.63;1794230;78;22860;-39
2021/06/28 05:41:18;;;;;;;4.20;2.25;;;;;;;29.86;38.67;99083.55;1791130;77;21065;-39
2021/06/28 05:43:45;;;;;;;4.22;2.50;;;;;;;29.76;38.66;99089.22;1787098;78;21351;-41
2021/06/28 05:46:12;;;;;;;4.75;2.55;;;;;;;29.70;39.03;99090.48;1787821;78;21029;-41
2021/06/28 05:48:39;;;;;;;5.72;2.60;;;;;;;29.69;39.16;99095.07;1793060;78;21518;-42
2021/06/28 05:51:06;;;;;;;2.92;2.65;;;;;;;29.70;39.14;99095.38;1795361;77;21846;-39
2021/06/28 05:53:33;;;;;;;5.47;2.12;;;;;;;29.69;38.94;99098.27;1760286;79;20953;-41
2021/06/28 05:56:01;;;;;;;3.27;2.40;;;;;;;29.68;39.02;99097.97;1782857;78;21015;-45
2021/06/28 05:58:29;;;;;;;5.00;2.20;;;;;;;29.64;39.02;99105.11;1790403;79;21497;-41
2021/06/28 06:00:58;;;;;;;2.83;2.40;;;;;;;29.63;38.78;99097.99;1780685;78;21023;-43
2021/06/28 06:03:25;;;;;;;2.42;2.12;;;;;;;29.61;38.93;99100.05;1769984;77;22389;-41
2021/06/28 06:05:52;;;;;;;2.27;2.08;;;;;;;29.62;38.88;99101.75;1769965;77;21056;-44
2021/06/28 06:08:23;;;;;;;5.60;2.50;;;;;;;29.62;38.78;99103.11;1798792;78;21015;-42
2021/06/28 06:10:56;;;;;;;3.15;2.27;;;;;;;29.61;38.80;99095.98;1806751;78;21042;-43
2021/06/28 06:13:23;;;;;;;3.02;2.40;;;;;;;29.58;38.69;99093.64;1776027;78;22220;-43
2021/06/28 06:15:49;;;;;;;3.22;2.10;;;;;;;29.54;38.79;99095.06;1781188;77;21899;-45
2021/06/28 06:18:16;;;;;;;2.80;1.90;;;;;;;29.52;38.81;99097.12;1798107;78;21022;-44
2021/06/28 06:20:44;;;;;;;5.35;2.30;;;;;;;29.52;38.78;99093.06;1776262;78;21556;-41
2021/06/28 06:23:12;;;;;;;3.02;2.40;;;;;;;29.52;38.78;99095.77;1765860;78;21089;-42
2021/06/28 06:25:40;;;;;;;2.05;1.90;;;;;;;29.50;38.78;99103.74;1779912;79;21034;-42
2021/06/28 06:28:06;;;;;;;2.12;1.92;;;;;;;29.46;38.72;99108.17;1763004;79;21504;-43
2021/06/28 06:30:34;;;;;;;4.42;1.72;;;;;;;29.40;38.83;99114.36;1776232;77;20892;-43
2021/06/28 06:33:01;;;;;;;2.33;1.92;;;;;;;29.32;38.89;99109.50;1789732;78;22261;-40
2021/06/28 06:35:28;;;;;;;2.70;1.72;;;;;;;29.25;39.05;99112.97;1790084;78;21097;-42
2021/06/28 06:38:00;;;;;;;4.85;2.05;;;;;;;29.25;39.20;99122.95;1793451;77;21126;-43
2021/06/28 06:40:24;;;;;;;2.62;1.75;;;;;;;29.25;39.21;99124.30;1792232;78;21154;-44
2021/06/28 06:42:53;;;;;;;3.12;1.98;;;;;;;29.21;39.19;99122.47;1772782;78;21724;-43
2021/06/28 06:45:20;;;;;;;3.80;1.85;;;;;;;29.18;39.16;99126.89;1766760;78;21070;-43
2021/06/28 06:47:47;;;;;;;14.87;10.28;;;;;;;29.16;38.96;99126.22;1781800;78;20979;-39
2021/06/28 06:50:15;;;;;;;10.10;6.08;;;;;;;29.09;38.68;99126.63;1777120;78;21057;-40
2021/06/28 06:52:46;;;;;;;6.83;4.58;;;;;;;28.75;39.34;99130.61;1750695;79;21135;-40
2021/06/28 06:55:13;;;;;;;6.33;3.25;;;;;;;28.54;40.04;99124.45;1785470;78;21025;-41
2021/06/28 06:57:40;;;;;;;6.40;2.00;;;;;;;28.39;40.34;99134.34;1776517;79;21034;-42
2021/06/28 07:00:10;;;;;;;3.05;1.80;;;;;;;28.04;40.77;99140.10;1755817;78;21534;-42
2021/06/28 07:02:37;;;;;;;4.78;2.45;;;;;;;27.51;41.75;99144.27;1764134;78;21046;-42
2021/06/28 07:05:05;;;;;;;6.33;3.05;;;;;;;27.26;42.56;99141.55;1780737;77;21171;-41
2021/06/28 07:07:32;;;;;;;2.00;1.90;;;;;;;27.27;42.80;99146.44;1755364;78;20951;-43
2021/06/28 07:09:59;;;;;;;3.70;1.90;;;;;;;27.20;43.00;99148.97;1796710;78;21475;-42
2021/06/28 07:12:25;;;;;;;2.62;1.80;;;;;;;26.99;43.33;99151.67;1797898;78;21572;-43
2021/06/28 07:14:53;;;;;;;4.30;1.80;;;;;;;26.79;43.86;99153.01;1791011;78;21155;-41
2021/06/28 07:17:20;;;;;;;3.85;1.87;;;;;;;26.62;44.26;99152.11;1767638;78;21093;-41
2021/06/28 07:19:46;;;;;;;3.20;1.90;;;;;;;26.64;44.57;99152.80;1788770;77;21026;-40
2021/06/28 07:22:13;;;;;;;2.55;1.92;;;;;;;26.76;44.46;99158.73;1820993;77;21054;-41
2021/06/28 07:24:40;;;;;;;4.22;1.90;;;;;;;26.80;43.98;99158.24;1802239;78;21027;-39
2021/06/28 07:27:06;;;;;;;48.33;32.15;;;;;;;26.79;44.22;99158.41;1802406;78;22188;-41
2021/06/28 07:29:34;;;;;;;15.28;9.88;;;;;;;26.77;44.23;99157.73;1798434;78;21693;-41
2021/06/28 07:32:01;;;;;;;8.90;6.08;;;;;;;26.73;44.41;99154.53;1797198;77;21121;-41
2021/06/28 07:34:28;;;;;;;13.62;6.03;;;;;;;26.61;44.37;99166.11;1801377;77;21061;-41
2021/06/28 07:36:55;;;;;;;6.30;5.20;;;;;;;26.52;44.59;99160.34;1768711;78;21454;-41
2021/06/28 07:39:22;;;;;;;5.28;4.10;;;;;;;26.62;44.53;99155.64;1786727;78;22484;-41
2021/06/28 07:41:50;;;;;;;5.95;3.35;;;;;;;26.80;44.35;99160.94;1782325;78;21172;-42
2021/06/28 07:44:17;;;;;;;3.58;3.10;;;;;;;26.97;44.10;99152.87;1771189;79;21101;-41
2021/06/28 07:46:46;;;;;;;5.25;2.72;;;;;;;27.14;43.88;99152.37;1768164;78;21875;-41
2021/06/28 07:49:12;;;;;;;5.05;2.35;;;;;;;27.25;43.66;99150.17;1767598;79;22280;-42
2021/06/28 07:51:40;;;;;;;2.98;2.05;;;;;;;27.41;43.44;99159.30;1767330;79;21413;-41
2021/06/28 07:54:07;;;;;;;3.83;2.30;;;;;;;27.52;43.14;99164.84;1740851;80;22188;-40
2021/06/28 07:56:34;;;;;;;2.50;2.05;;;;;;;27.59;42.95;99163.17;1767245;79;21960;-40
2021/06/28 07:59:01;;;;;;;5.10;2.00;;;;;;;27.66;42.82;99164.16;1749104;80;20997;-39
2021/06/28 08:01:32;;;;;;;4.08;2.00;;;;;;;27.76;42.64;99163.46;1770794;79;21052;-41
2021/06/28 08:03:56;;;;;;;2.25;1.60;;;;;;;27.86;42.50;99159.73;1769911;79;20990;-41
2021/06/28 08:06:23;;;;;;;3.02;1.60;;;;;;;27.94;42.24;99160.58;1775754;78;21881;-44
2021/06/28 08:08:51;;;;;;;1.98;1.60;;;;;;;28.03;42.15;99158.69;1776014;79;21967;-40
2021/06/28 08:11:19;;;;;;;7.65;2.05;;;;;;;28.12;42.05;99161.68;1776644;79;21018;-40
2021/06/28 08:13:49;;;;;;;3.58;1.82;;;;;;;28.24;41.94;99152.67;1741100;79;20978;-39
2021/06/28 08:16:16;;;;;;;3.62;1.80;;;;;;;28.35;41.83;99156.34;1778746;78;21594;-40
2021/06/28 08:18:45;;;;;;;2.27;1.72;;;;;;;28.43;41.68;99160.02;1775578;78;21095;-42
2021/06/28 08:21:12;;;;;;;2.62;1.80;;;;;;;28.49;41.55;99164.21;1774662;78;21013;-43
2021/06/28 08:23:39;;;;;;;3.35;1.52;;;;;;;28.54;41.42;99163.17;1775231;78;22102;-39
2021/06/28 08:26:05;;;;;;;3.10;1.75;;;;;;;28.59;41.29;99166.73;1777273;78;21013;-40
2021/06/28 08:28:32;;;;;;;2.80;1.70;;;;;;;28.65;41.18;99159.78;1776768;78;21074;-40
2021/06/28 08:30:59;;;;;;;6.42;1.70;;;;;;;28.70;41.11;99173.62;1774923;78;21102;-41
2021/06/28 08:33:25;;;;;;;1.57;1.47;;;;;;;28.74;40.93;99176.30;1776110;77;21024;-41
2021/06/28 08:35:52;;;;;;;4.17;1.70;;;;;;;28.79;40.73;99168.99;1775012;77;21584;-42
2021/06/28 08:38:18;;;;;;;6.28;1.60;;;;;;;28.83;40.63;99171.66;1774845;78;21845;-40
2021/06/28 08:40:45;;;;;;;2.00;1.52;;;;;;;28.87;40.60;99176.55;1773104;78;21053;-42
2021/06/28 08:43:12;;;;;;;2.22;1.60;;;;;;;28.95;40.48;99172.09;1752300;79;21088;-42
2021/06/28 08:45:40;;;;;;;1.62;1.40;;;;;;;29.01;40.44;99184.92;1777347;78;20973;-42
2021/06/28 08:48:08;;;;;;;2.37;1.60;;;;;;;29.08;40.35;99181.31;1803627;77;20971;-40
2021/06/28 08:50:36;;;;;;;2.87;1.35;;;;;;;29.15;39.99;99177.37;1750551;78;21468;-40
2021/06/28 08:53:04;;;;;;;3.02;1.50;;;;;;;29.20;39.80;99179.05;1774804;78;21031;-39
2021/06/28 08:55:33;;;;;;;2.42;1.62;;;;;;;29.24;39.50;99186.30;1775291;78;21087;-40
2021/06/28 08:57:59;;;;;;;4.10;1.42;;;;;;;29.29;39.28;99173.05;1774425;77;20969;-41
2021/06/28 09:00:25;;;;;;;4.15;1.30;;;;;;;29.34;39.16;99177.41;1774888;78;21050;-40
2021/06/28 09:03:01;;;;;;;2.33;1.55;;;;;;;29.38;38.97;99179.23;1776254;78;21032;-41
2021/06/28 09:05:27;;;;;;;3.33;1.57;;;;;;;29.39;38.99;99183.13;1775029;78;21035;-41
2021/06/28 09:08:13;;;;;;;3.75;1.50;;;;;;;29.42;38.83;99187.31;1775823;78;22017;-43
2021/06/28 09:10:41;;;;;;;2.67;1.42;;;;;;;29.41;38.88;99186.48;1774902;77;20973;-43
2021/06/28 09:13:07;;;;;;;4.45;1.45;;;;;;;29.39;38.92;99187.19;1754197;78;21926;-41
2021/06/28 09:15:39;;;;;;;3.37;1.40;;;;;;;29.39;38.74;99201.26;1774908;77;21092;-42
2021/06/28 09:18:23;;;;;;;1.95;1.32;;;;;;;29.40;38.68;99200.22;1774146;78;21025;-41
2021/06/28 09:21:07;;;;;;;2.90;1.52;;;;;;;29.45;38.60;99189.66;1749311;79;22351;-40
2021/06/28 09:23:40;;;;;;;2.72;1.67;;;;;;;29.48;38.10;99193.89;1777405;78;21691;-42
2021/06/28 09:26:15;;;;;;;2.80;1.60;;;;;;;29.46;38.15;99191.36;1786033;78;21453;-42
2021/06/28 09:28:45;;;;;;;2.98;1.40;;;;;;;29.48;38.16;99194.72;1770152;78;21018;-42
2021/06/28 09:31:42;;;;;;;2.20;1.27;;;;;;;29.51;38.20;99195.72;1776869;78;21051;-41
2021/06/28 09:34:18;;;;;;;2.20;1.45;;;;;;;29.53;38.22;99200.44;1744328;78;21038;-42
2021/06/28 09:36:55;;;;;;;6.62;1.80;;;;;;;29.56;38.11;99194.66;1772170;78;21424;-42
2021/06/28 09:39:27;;;;;;;3.15;1.90;;;;;;;29.57;37.95;99190.06;1773869;77;21567;-45
2021/06/28 09:42:14;;;;;;;2.10;1.95;;;;;;;29.59;37.87;99200.23;1773990;78;21077;-41
2021/06/28 09:45:03;;;;;;;6.15;2.00;;;;;;;29.61;37.83;99193.59;1775723;77;20994;-46
2021/06/28 09:47:32;;;;;;;2.65;2.00;;;;;;;29.61;37.87;99190.88;1750281;79;21029;-41
2021/06/28 09:50:23;;;;;;;5.20;1.90;;;;;;;29.60;37.96;99199.19;1748992;79;21000;-43
2021/06/28 09:52:55;;;;;;;1.75;1.65;;;;;;;29.58;38.07;99198.02;1775498;78;21019;-44
2021/06/28 09:55:34;;;;;;;5.10;1.40;;;;;;;29.56;38.20;99208.20;1774477;78;21061;-41
2021/06/28 09:58:24;;;;;;;7.08;1.40;;;;;;;29.57;38.00;99209.91;1774527;78;21019;-41
2021/06/28 10:00:56;;;;;;;3.33;1.40;;;;;;;29.59;37.91;99207.84;1775684;78;21060;-41
2021/06/28 10:03:38;;;;;;;1.50;1.40;;;;;;;29.63;37.79;99202.38;1751746;79;21031;-41
2021/06/28 10:06:29;;;;;;;4.40;1.27;;;;;;;29.69;37.77;99206.72;1773297;78;21038;-42
2021/06/28 10:08:37;;;;;;;1.45;1.12;;;;;;;29.75;37.77;99206.00;1767462;78;21012;-41
2021/06/28 10:11:15;;;;;;;3.58;1.40;;;;;;;29.81;37.66;99213.44;1774102;77;21030;-41
2021/06/28 10:14:00;;;;;;;3.27;1.52;;;;;;;29.86;37.44;99205.58;1775075;77;21080;-43
2021/06/28 10:16:33;;;;;;;12.90;7.92;;;;;;;29.88;37.43;99203.52;1792499;77;21520;-43
2021/06/28 10:19:01;;;;;;;8.90;6.33;;;;;;;29.89;37.54;99213.36;1766925;78;21061;-43
2021/06/28 10:21:28;;;;;;;8.10;5.85;;;;;;;29.91;37.57;99206.36;1804481;77;21105;-43
2021/06/28 10:23:55;;;;;;;6.67;4.37;;;;;;;29.90;37.59;99209.59;1796282;77;21082;-42
2021/06/28 10:26:23;;;;;;;5.53;3.75;;;;;;;29.89;37.68;99210.64;1795828;77;21103;-43
2021/06/28 10:28:49;;;;;;;9.03;2.60;;;;;;;29.93;37.63;99205.16;1801163;77;20998;-43
2021/06/28 10:31:16;;;;;;;9.43;2.70;;;;;;;29.94;37.66;99201.43;1793168;77;21000;-42
2021/06/28 10:33:47;;;;;;;5.92;2.30;;;;;;;29.95;37.68;99202.27;1783260;77;21129;-41
2021/06/28 10:36:14;;;;;;;3.22;2.10;;;;;;;29.96;37.69;99203.44;1813486;77;21031;-42
2021/06/28 10:38:48;;;;;;;4.45;2.17;;;;;;;29.94;37.82;99208.70;1808344;77;21926;-42
2021/06/28 10:41:47;;;;;;;3.70;1.60;;;;;;;29.95;37.78;99204.45;1817579;77;21098;-42
2021/06/28 10:44:15;;;;;;;1.47;1.30;;;;;;;29.97;37.73;99202.39;1810569;77;21580;-43
2021/06/28 10:46:45;;;;;;;3.92;1.70;;;;;;;29.97;37.61;99207.81;1821231;77;21077;-41
2021/06/28 10:49:14;;;;;;;5.12;1.42;;;;;;;29.96;37.49;99214.29;1818336;77;20972;-43
2021/06/28 10:51:49;;;;;;;4.10;1.82;;;;;;;29.89;37.56;99206.58;1818892;77;21745;-44
2021/06/28 10:54:23;;;;;;;3.27;1.40;;;;;;;29.85;37.67;99220.16;1777747;77;21118;-43
2021/06/28 10:56:55;;;;;;;3.85;1.50;;;;;;;29.85;37.57;99214.73;1787140;78;21031;-44
2021/06/28 10:59:24;;;;;;;2.37;1.27;;;;;;;29.84;37.60;99200.83;1781942;78;21039;-44
2021/06/28 11:02:06;;;;;;;6.85;1.40;;;;;;;29.87;37.62;99205.89;1807999;77;21639;-43
2021/06/28 11:04:55;;;;;;;4.62;1.30;;;;;;;29.88;37.12;99214.37;1783567;78;21069;-44
2021/06/28 11:07:21;;;;;;;2.42;1.12;;;;;;;29.83;37.11;99212.20;1795889;77;21613;-42
2021/06/28 11:09:56;;;;;;;4.65;1.40;;;;;;;29.80;36.73;99207.67;1797415;77;21028;-42
2021/06/28 11:12:31;;;;;;;5.75;1.40;;;;;;;29.73;36.69;99209.41;1821560;77;21459;-42
2021/06/28 11:15:12;;;;;;;4.10;1.20;;;;;;;29.64;36.65;99205.95;1787484;77;21044;-42
2021/06/28 11:17:50;;;;;;;3.75;1.35;;;;;;;29.63;36.88;99200.18;1806767;77;21609;-42
2021/06/28 11:20:34;;;;;;;3.52;1.05;;;;;;;29.62;36.47;99202.06;1812640;77;21030;-42
2021/06/28 11:23:05;;;;;;;3.35;1.20;;;;;;;29.63;36.50;99211.03;1817205;77;21027;-43
2021/06/28 11:25:37;;;;;;;2.72;1.05;;;;;;;29.64;36.43;99210.02;1817055;77;21020;-44
2021/06/28 11:28:12;;;;;;;4.47;1.70;;;;;;;29.67;36.34;99206.08;1820444;77;21107;-45
2021/06/28 11:30:55;;;;;;;3.00;1.32;;;;;;;29.63;36.78;99206.44;1802301;77;21130;-41
2021/06/28 11:33:47;;;;;;;1.37;1.07;;;;;;;29.64;36.91;99207.30;1765533;80;21032;-41
2021/06/28 11:36:31;;;;;;;1.52;1.15;;;;;;;29.62;36.68;99202.06;1768058;79;21098;-41
2021/06/28 11:39:25;;;;;;;2.42;1.17;;;;;;;29.59;36.93;99213.27;1736100;81;21724;-42
2021/06/28 11:42:24;;;;;;;5.08;1.45;;;;;;;29.58;36.56;99200.73;1718293;80;21047;-43
2021/06/28 11:44:57;;;;;;;4.05;1.22;;;;;;;29.58;36.44;99202.08;1757786;79;21154;-40